sensor_id;sensor_type;location;lat;lon;timestamp;P1;durP1;ratioP1;P2;durP2;ratioP2
5175;SDS011;2607;50.934;6.934;2023-05-06T00:01:57;31.37;;;15.73;;
5175;SDS011;2607;50.934;6.934;2023-05-06T00:04:22;29.73;;;14.37;;
5175;SDS011;2607;50.934;6.934;2023-05-06T00:06:48;26.40;;;13.73;;
5175;SDS011;2607;50.934;6.934;2023-05-06T00:09:13;32.80;;;14.80;;
5175;SDS011;2607;50.934;6.934;2023-05-06T00:11:39;28.83;;;14.33;;
5175;SDS011;2607;50.934;6.934;2023-05-06T00:14:05;31.27;;;16.60;;
5175;SDS011;2607;50.934;6.934;2023-05-06T00:16:31;29.97;;;16.87;;
5175;SDS011;2607;50.934;6.934;2023-05-06T00:18:56;29.70;;;15.03;;
5175;SDS011;2607;50.934;6.934;2023-05-06T00:21:22;38.20;;;17.90;;
5175;SDS011;2607;50.934;6.934;2023-05-06T00:23:53;34.03;;;17.73;;
5175;SDS011;2607;50.934;6.934;2023-05-06T00:26:19;48.37;;;20.70;;
5175;SDS011;2607;50.934;6.934;2023-05-06T00:28:44;38.27;;;19.03;;
5175;SDS011;2607;50.934;6.934;2023-05-06T00:31:10;40.03;;;20.43;;
5175;SDS011;2607;50.934;6.934;2023-05-06T00:33:35;40.83;;;20.70;;
5175;SDS011;2607;50.934;6.934;2023-05-06T00:36:01;39.27;;;20.90;;
5175;SDS011;2607;50.934;6.934;2023-05-06T00:38:26;39.23;;;20.17;;
5175;SDS011;2607;50.934;6.934;2023-05-06T00:40:52;38.53;;;20.80;;
5175;SDS011;2607;50.934;6.934;2023-05-06T00:43:17;38.70;;;20.73;;
5175;SDS011;2607;50.934;6.934;2023-05-06T00:45:43;38.67;;;20.30;;
5175;SDS011;2607;50.934;6.934;2023-05-06T00:48:08;46.60;;;21.13;;
5175;SDS011;2607;50.934;6.934;2023-05-06T00:50:34;39.00;;;21.43;;
5175;SDS011;2607;50.934;6.934;2023-05-06T00:53:01;38.20;;;20.27;;
5175;SDS011;2607;50.934;6.934;2023-05-06T00:55:28;35.10;;;19.10;;
5175;SDS011;2607;50.934;6.934;2023-05-06T00:57:54;39.20;;;21.37;;
5175;SDS011;2607;50.934;6.934;2023-05-06T01:00:21;40.67;;;21.00;;
5175;SDS011;2607;50.934;6.934;2023-05-06T01:02:47;41.40;;;20.60;;
5175;SDS011;2607;50.934;6.934;2023-05-06T01:05:13;37.53;;;19.67;;
5175;SDS011;2607;50.934;6.934;2023-05-06T01:07:57;37.00;;;19.47;;
5175;SDS011;2607;50.934;6.934;2023-05-06T01:11:06;42.00;;;21.17;;
5175;SDS011;2607;50.934;6.934;2023-05-06T01:13:49;37.03;;;20.23;;
5175;SDS011;2607;50.934;6.934;2023-05-06T01:16:21;42.23;;;22.20;;
5175;SDS011;2607;50.934;6.934;2023-05-06T01:18:49;45.67;;;23.17;;
5175;SDS011;2607;50.934;6.934;2023-05-06T01:21:17;33.87;;;19.10;;
5175;SDS011;2607;50.934;6.934;2023-05-06T01:23:53;42.00;;;21.73;;
5175;SDS011;2607;50.934;6.934;2023-05-06T01:26:20;42.50;;;20.47;;
5175;SDS011;2607;50.934;6.934;2023-05-06T01:28:46;45.03;;;22.00;;
5175;SDS011;2607;50.934;6.934;2023-05-06T01:31:12;38.17;;;21.00;;
5175;SDS011;2607;50.934;6.934;2023-05-06T01:34:07;39.97;;;22.00;;
5175;SDS011;2607;50.934;6.934;2023-05-06T01:36:48;34.27;;;20.90;;
5175;SDS011;2607;50.934;6.934;2023-05-06T01:39:21;41.50;;;23.20;;
5175;SDS011;2607;50.934;6.934;2023-05-06T01:41:55;41.60;;;22.90;;
5175;SDS011;2607;50.934;6.934;2023-05-06T01:44:23;45.03;;;21.27;;
5175;SDS011;2607;50.934;6.934;2023-05-06T01:46:51;36.93;;;20.20;;
5175;SDS011;2607;50.934;6.934;2023-05-06T01:49:18;41.27;;;22.23;;
5175;SDS011;2607;50.934;6.934;2023-05-06T01:51:49;44.13;;;24.83;;
5175;SDS011;2607;50.934;6.934;2023-05-06T01:54:15;40.87;;;20.80;;
5175;SDS011;2607;50.934;6.934;2023-05-06T01:56:41;45.43;;;23.17;;
5175;SDS011;2607;50.934;6.934;2023-05-06T01:59:07;40.70;;;21.10;;
5175;SDS011;2607;50.934;6.934;2023-05-06T02:01:32;39.80;;;22.10;;
5175;SDS011;2607;50.934;6.934;2023-05-06T02:03:58;39.30;;;20.93;;
5175;SDS011;2607;50.934;6.934;2023-05-06T02:06:23;37.57;;;20.97;;
5175;SDS011;2607;50.934;6.934;2023-05-06T02:08:49;41.00;;;22.33;;
5175;SDS011;2607;50.934;6.934;2023-05-06T02:11:15;37.07;;;21.00;;
5175;SDS011;2607;50.934;6.934;2023-05-06T02:13:41;41.50;;;22.53;;
5175;SDS011;2607;50.934;6.934;2023-05-06T02:16:06;41.33;;;21.70;;
5175;SDS011;2607;50.934;6.934;2023-05-06T02:18:32;35.23;;;20.57;;
5175;SDS011;2607;50.934;6.934;2023-05-06T02:20:58;36.53;;;20.73;;
5175;SDS011;2607;50.934;6.934;2023-05-06T02:23:24;35.10;;;20.70;;
5175;SDS011;2607;50.934;6.934;2023-05-06T02:25:49;40.80;;;21.80;;
5175;SDS011;2607;50.934;6.934;2023-05-06T02:28:15;43.03;;;20.43;;
5175;SDS011;2607;50.934;6.934;2023-05-06T02:30:41;36.27;;;21.07;;
5175;SDS011;2607;50.934;6.934;2023-05-06T02:33:07;32.83;;;20.30;;
5175;SDS011;2607;50.934;6.934;2023-05-06T02:35:32;37.70;;;21.30;;
5175;SDS011;2607;50.934;6.934;2023-05-06T02:37:58;32.70;;;19.63;;
5175;SDS011;2607;50.934;6.934;2023-05-06T02:40:23;41.70;;;20.10;;
5175;SDS011;2607;50.934;6.934;2023-05-06T02:42:49;30.13;;;19.33;;
5175;SDS011;2607;50.934;6.934;2023-05-06T02:45:14;27.73;;;18.43;;
5175;SDS011;2607;50.934;6.934;2023-05-06T02:47:40;32.00;;;19.47;;
5175;SDS011;2607;50.934;6.934;2023-05-06T02:50:06;27.50;;;17.50;;
5175;SDS011;2607;50.934;6.934;2023-05-06T02:52:31;24.23;;;17.07;;
5175;SDS011;2607;50.934;6.934;2023-05-06T02:54:58;28.33;;;17.27;;
5175;SDS011;2607;50.934;6.934;2023-05-06T02:57:24;26.00;;;17.13;;
5175;SDS011;2607;50.934;6.934;2023-05-06T02:59:50;28.60;;;17.63;;
5175;SDS011;2607;50.934;6.934;2023-05-06T03:02:15;27.03;;;17.63;;
5175;SDS011;2607;50.934;6.934;2023-05-06T03:04:41;25.10;;;17.03;;
5175;SDS011;2607;50.934;6.934;2023-05-06T03:07:06;21.10;;;15.50;;
5175;SDS011;2607;50.934;6.934;2023-05-06T03:09:32;22.17;;;15.33;;
5175;SDS011;2607;50.934;6.934;2023-05-06T03:11:57;20.60;;;15.20;;
5175;SDS011;2607;50.934;6.934;2023-05-06T03:14:23;20.73;;;15.00;;
5175;SDS011;2607;50.934;6.934;2023-05-06T03:16:49;26.03;;;16.07;;
5175;SDS011;2607;50.934;6.934;2023-05-06T03:19:14;21.17;;;15.13;;
5175;SDS011;2607;50.934;6.934;2023-05-06T03:21:40;21.80;;;15.30;;
5175;SDS011;2607;50.934;6.934;2023-05-06T03:24:05;24.93;;;16.00;;
5175;SDS011;2607;50.934;6.934;2023-05-06T03:26:31;21.07;;;14.57;;
5175;SDS011;2607;50.934;6.934;2023-05-06T03:28:56;21.97;;;16.00;;
5175;SDS011;2607;50.934;6.934;2023-05-06T03:31:22;22.50;;;15.77;;
5175;SDS011;2607;50.934;6.934;2023-05-06T03:33:47;28.10;;;17.37;;
5175;SDS011;2607;50.934;6.934;2023-05-06T03:36:13;27.43;;;16.90;;
5175;SDS011;2607;50.934;6.934;2023-05-06T03:38:39;28.20;;;16.40;;
5175;SDS011;2607;50.934;6.934;2023-05-06T03:41:05;22.60;;;16.07;;
5175;SDS011;2607;50.934;6.934;2023-05-06T03:43:30;24.77;;;17.00;;
5175;SDS011;2607;50.934;6.934;2023-05-06T03:45:57;25.10;;;16.63;;
5175;SDS011;2607;50.934;6.934;2023-05-06T03:48:22;29.80;;;16.87;;
5175;SDS011;2607;50.934;6.934;2023-05-06T03:50:48;26.30;;;16.03;;
5175;SDS011;2607;50.934;6.934;2023-05-06T03:53:13;24.33;;;15.90;;
5175;SDS011;2607;50.934;6.934;2023-05-06T03:55:39;23.70;;;16.80;;
5175;SDS011;2607;50.934;6.934;2023-05-06T03:58:05;27.17;;;18.60;;
5175;SDS011;2607;50.934;6.934;2023-05-06T04:00:31;25.83;;;16.60;;
5175;SDS011;2607;50.934;6.934;2023-05-06T04:02:57;26.33;;;16.60;;
5175;SDS011;2607;50.934;6.934;2023-05-06T04:05:22;25.63;;;15.50;;
5175;SDS011;2607;50.934;6.934;2023-05-06T04:07:48;22.80;;;16.30;;
5175;SDS011;2607;50.934;6.934;2023-05-06T04:10:14;23.27;;;16.90;;
5175;SDS011;2607;50.934;6.934;2023-05-06T04:12:39;24.13;;;16.53;;
5175;SDS011;2607;50.934;6.934;2023-05-06T04:15:05;23.43;;;16.20;;
5175;SDS011;2607;50.934;6.934;2023-05-06T04:17:31;27.53;;;15.37;;
5175;SDS011;2607;50.934;6.934;2023-05-06T04:19:57;25.63;;;16.97;;
5175;SDS011;2607;50.934;6.934;2023-05-06T04:22:22;24.73;;;16.80;;
5175;SDS011;2607;50.934;6.934;2023-05-06T04:24:48;26.00;;;17.17;;
5175;SDS011;2607;50.934;6.934;2023-05-06T04:27:14;25.40;;;16.63;;
5175;SDS011;2607;50.934;6.934;2023-05-06T04:29:39;28.23;;;16.30;;
5175;SDS011;2607;50.934;6.934;2023-05-06T04:32:05;26.40;;;17.20;;
5175;SDS011;2607;50.934;6.934;2023-05-06T04:34:31;23.30;;;16.10;;
5175;SDS011;2607;50.934;6.934;2023-05-06T04:37:00;23.20;;;16.10;;
5175;SDS011;2607;50.934;6.934;2023-05-06T04:39:25;23.03;;;17.00;;
5175;SDS011;2607;50.934;6.934;2023-05-06T04:41:51;29.53;;;17.90;;
5175;SDS011;2607;50.934;6.934;2023-05-06T04:44:16;25.43;;;16.70;;
5175;SDS011;2607;50.934;6.934;2023-05-06T04:46:43;27.17;;;16.60;;
5175;SDS011;2607;50.934;6.934;2023-05-06T04:49:08;24.70;;;17.03;;
5175;SDS011;2607;50.934;6.934;2023-05-06T04:51:34;28.63;;;18.40;;
5175;SDS011;2607;50.934;6.934;2023-05-06T04:54:00;26.77;;;18.37;;
5175;SDS011;2607;50.934;6.934;2023-05-06T04:56:26;26.63;;;17.77;;
5175;SDS011;2607;50.934;6.934;2023-05-06T04:58:51;25.00;;;17.00;;
5175;SDS011;2607;50.934;6.934;2023-05-06T05:01:17;25.63;;;17.73;;
5175;SDS011;2607;50.934;6.934;2023-05-06T05:03:43;24.93;;;16.27;;
5175;SDS011;2607;50.934;6.934;2023-05-06T05:06:09;28.23;;;16.30;;
5175;SDS011;2607;50.934;6.934;2023-05-06T05:08:35;22.90;;;16.30;;
5175;SDS011;2607;50.934;6.934;2023-05-06T05:11:00;25.23;;;15.93;;
5175;SDS011;2607;50.934;6.934;2023-05-06T05:13:26;29.90;;;17.70;;
5175;SDS011;2607;50.934;6.934;2023-05-06T05:15:54;25.90;;;17.50;;
5175;SDS011;2607;50.934;6.934;2023-05-06T05:18:20;26.87;;;16.70;;
5175;SDS011;2607;50.934;6.934;2023-05-06T05:20:45;30.30;;;17.77;;
5175;SDS011;2607;50.934;6.934;2023-05-06T05:23:11;27.20;;;17.20;;
5175;SDS011;2607;50.934;6.934;2023-05-06T05:25:37;27.13;;;18.00;;
5175;SDS011;2607;50.934;6.934;2023-05-06T05:28:02;27.67;;;17.87;;
5175;SDS011;2607;50.934;6.934;2023-05-06T05:30:28;27.13;;;18.40;;
5175;SDS011;2607;50.934;6.934;2023-05-06T05:32:53;33.77;;;18.20;;
5175;SDS011;2607;50.934;6.934;2023-05-06T05:35:19;29.63;;;18.80;;
5175;SDS011;2607;50.934;6.934;2023-05-06T05:37:44;31.93;;;19.33;;
5175;SDS011;2607;50.934;6.934;2023-05-06T05:40:11;29.93;;;19.50;;
5175;SDS011;2607;50.934;6.934;2023-05-06T05:42:36;35.33;;;19.37;;
5175;SDS011;2607;50.934;6.934;2023-05-06T05:45:02;35.93;;;20.27;;
5175;SDS011;2607;50.934;6.934;2023-05-06T05:47:28;29.67;;;18.40;;
5175;SDS011;2607;50.934;6.934;2023-05-06T05:49:54;31.67;;;19.47;;
5175;SDS011;2607;50.934;6.934;2023-05-06T05:52:19;24.60;;;17.40;;
5175;SDS011;2607;50.934;6.934;2023-05-06T05:54:45;32.83;;;17.77;;
5175;SDS011;2607;50.934;6.934;2023-05-06T05:57:10;22.37;;;16.33;;
5175;SDS011;2607;50.934;6.934;2023-05-06T05:59:36;25.13;;;17.93;;
5175;SDS011;2607;50.934;6.934;2023-05-06T06:02:02;24.80;;;16.67;;
5175;SDS011;2607;50.934;6.934;2023-05-06T06:04:27;27.27;;;17.37;;
5175;SDS011;2607;50.934;6.934;2023-05-06T06:06:54;23.43;;;16.90;;
5175;SDS011;2607;50.934;6.934;2023-05-06T06:09:22;26.97;;;17.60;;
5175;SDS011;2607;50.934;6.934;2023-05-06T06:11:47;27.83;;;18.00;;
5175;SDS011;2607;50.934;6.934;2023-05-06T06:14:13;24.77;;;18.80;;
5175;SDS011;2607;50.934;6.934;2023-05-06T06:16:38;27.97;;;17.43;;
5175;SDS011;2607;50.934;6.934;2023-05-06T06:19:04;26.83;;;18.33;;
5175;SDS011;2607;50.934;6.934;2023-05-06T06:21:30;23.03;;;16.93;;
5175;SDS011;2607;50.934;6.934;2023-05-06T06:23:56;24.07;;;16.30;;
5175;SDS011;2607;50.934;6.934;2023-05-06T06:26:21;25.77;;;17.30;;
5175;SDS011;2607;50.934;6.934;2023-05-06T06:28:47;21.60;;;16.30;;
5175;SDS011;2607;50.934;6.934;2023-05-06T06:31:12;26.10;;;17.27;;
5175;SDS011;2607;50.934;6.934;2023-05-06T06:33:38;23.93;;;16.20;;
5175;SDS011;2607;50.934;6.934;2023-05-06T06:36:03;28.73;;;16.90;;
5175;SDS011;2607;50.934;6.934;2023-05-06T06:38:30;19.63;;;14.57;;
5175;SDS011;2607;50.934;6.934;2023-05-06T06:40:55;23.83;;;16.33;;
5175;SDS011;2607;50.934;6.934;2023-05-06T06:43:21;24.40;;;16.53;;
5175;SDS011;2607;50.934;6.934;2023-05-06T06:45:47;18.93;;;15.00;;
5175;SDS011;2607;50.934;6.934;2023-05-06T06:48:13;19.77;;;15.17;;
5175;SDS011;2607;50.934;6.934;2023-05-06T06:50:40;20.00;;;14.97;;
5175;SDS011;2607;50.934;6.934;2023-05-06T06:53:06;31.63;;;15.23;;
5175;SDS011;2607;50.934;6.934;2023-05-06T06:55:31;16.10;;;14.17;;
5175;SDS011;2607;50.934;6.934;2023-05-06T06:57:57;17.90;;;13.70;;
5175;SDS011;2607;50.934;6.934;2023-05-06T07:00:22;17.87;;;13.50;;
5175;SDS011;2607;50.934;6.934;2023-05-06T07:02:48;16.10;;;13.83;;
5175;SDS011;2607;50.934;6.934;2023-05-06T07:05:14;17.97;;;13.60;;
5175;SDS011;2607;50.934;6.934;2023-05-06T07:07:39;13.73;;;11.70;;
5175;SDS011;2607;50.934;6.934;2023-05-06T07:10:05;15.70;;;11.80;;
5175;SDS011;2607;50.934;6.934;2023-05-06T07:12:31;15.40;;;11.80;;
5175;SDS011;2607;50.934;6.934;2023-05-06T07:14:57;15.53;;;11.77;;
5175;SDS011;2607;50.934;6.934;2023-05-06T07:17:22;18.90;;;12.43;;
5175;SDS011;2607;50.934;6.934;2023-05-06T07:19:48;16.20;;;12.50;;
5175;SDS011;2607;50.934;6.934;2023-05-06T07:22:13;16.57;;;12.53;;
5175;SDS011;2607;50.934;6.934;2023-05-06T07:24:39;15.37;;;12.13;;
5175;SDS011;2607;50.934;6.934;2023-05-06T07:27:05;14.30;;;11.80;;
5175;SDS011;2607;50.934;6.934;2023-05-06T07:29:30;12.60;;;11.00;;
5175;SDS011;2607;50.934;6.934;2023-05-06T07:31:56;17.33;;;11.17;;
5175;SDS011;2607;50.934;6.934;2023-05-06T07:34:21;11.53;;;9.97;;
5175;SDS011;2607;50.934;6.934;2023-05-06T07:36:47;12.10;;;10.83;;
5175;SDS011;2607;50.934;6.934;2023-05-06T07:39:13;11.33;;;10.20;;
5175;SDS011;2607;50.934;6.934;2023-05-06T07:41:38;11.13;;;9.23;;
5175;SDS011;2607;50.934;6.934;2023-05-06T07:44:04;12.43;;;10.00;;
5175;SDS011;2607;50.934;6.934;2023-05-06T07:46:30;8.60;;;7.83;;
5175;SDS011;2607;50.934;6.934;2023-05-06T07:48:56;13.03;;;9.23;;
5175;SDS011;2607;50.934;6.934;2023-05-06T07:51:21;12.17;;;9.67;;
5175;SDS011;2607;50.934;6.934;2023-05-06T07:53:47;10.03;;;9.03;;
5175;SDS011;2607;50.934;6.934;2023-05-06T07:56:12;10.00;;;8.70;;
5175;SDS011;2607;50.934;6.934;2023-05-06T07:58:38;8.43;;;7.57;;
5175;SDS011;2607;50.934;6.934;2023-05-06T08:01:04;7.43;;;6.73;;
5175;SDS011;2607;50.934;6.934;2023-05-06T08:03:30;10.30;;;8.50;;
5175;SDS011;2607;50.934;6.934;2023-05-06T08:05:56;11.53;;;7.50;;
5175;SDS011;2607;50.934;6.934;2023-05-06T08:08:22;9.90;;;8.90;;
5175;SDS011;2607;50.934;6.934;2023-05-06T08:10:51;10.00;;;7.53;;
5175;SDS011;2607;50.934;6.934;2023-05-06T08:13:21;7.23;;;6.63;;
5175;SDS011;2607;50.934;6.934;2023-05-06T08:15:48;7.13;;;5.93;;
5175;SDS011;2607;50.934;6.934;2023-05-06T08:18:13;5.87;;;5.37;;
5175;SDS011;2607;50.934;6.934;2023-05-06T08:20:39;3.90;;;3.60;;
5175;SDS011;2607;50.934;6.934;2023-05-06T08:23:05;4.17;;;3.87;;
5175;SDS011;2607;50.934;6.934;2023-05-06T08:25:30;6.20;;;4.50;;
5175;SDS011;2607;50.934;6.934;2023-05-06T08:27:56;4.40;;;4.10;;
5175;SDS011;2607;50.934;6.934;2023-05-06T08:30:21;5.20;;;4.70;;
5175;SDS011;2607;50.934;6.934;2023-05-06T08:32:47;5.67;;;4.50;;
5175;SDS011;2607;50.934;6.934;2023-05-06T08:35:12;5.20;;;4.80;;
5175;SDS011;2607;50.934;6.934;2023-05-06T08:37:39;4.50;;;4.20;;
5175;SDS011;2607;50.934;6.934;2023-05-06T08:40:07;4.03;;;3.77;;
5175;SDS011;2607;50.934;6.934;2023-05-06T08:42:44;5.80;;;5.30;;
5175;SDS011;2607;50.934;6.934;2023-05-06T08:45:17;5.00;;;4.50;;
5175;SDS011;2607;50.934;6.934;2023-05-06T08:47:43;9.30;;;4.90;;
5175;SDS011;2607;50.934;6.934;2023-05-06T08:50:10;4.60;;;4.30;;
5175;SDS011;2607;50.934;6.934;2023-05-06T08:52:37;3.70;;;3.50;;
5175;SDS011;2607;50.934;6.934;2023-05-06T08:55:03;4.80;;;4.43;;
5175;SDS011;2607;50.934;6.934;2023-05-06T08:57:29;3.33;;;3.13;;
5175;SDS011;2607;50.934;6.934;2023-05-06T08:59:56;4.10;;;3.83;;
5175;SDS011;2607;50.934;6.934;2023-05-06T09:02:22;3.60;;;3.30;;
5175;SDS011;2607;50.934;6.934;2023-05-06T09:04:48;6.63;;;6.03;;
5175;SDS011;2607;50.934;6.934;2023-05-06T09:07:15;3.57;;;3.47;;
5175;SDS011;2607;50.934;6.934;2023-05-06T09:09:42;5.70;;;3.90;;
5175;SDS011;2607;50.934;6.934;2023-05-06T09:12:10;3.80;;;3.50;;
5175;SDS011;2607;50.934;6.934;2023-05-06T09:14:37;6.07;;;4.40;;
5175;SDS011;2607;50.934;6.934;2023-05-06T09:17:03;4.40;;;4.10;;
5175;SDS011;2607;50.934;6.934;2023-05-06T09:19:29;5.20;;;4.80;;
5175;SDS011;2607;50.934;6.934;2023-05-06T09:21:55;5.57;;;5.07;;
5175;SDS011;2607;50.934;6.934;2023-05-06T09:24:21;3.40;;;3.20;;
5175;SDS011;2607;50.934;6.934;2023-05-06T09:26:47;13.77;;;3.40;;
5175;SDS011;2607;50.934;6.934;2023-05-06T09:29:16;3.30;;;3.10;;
5175;SDS011;2607;50.934;6.934;2023-05-06T09:31:42;6.00;;;3.70;;
5175;SDS011;2607;50.934;6.934;2023-05-06T09:34:09;5.53;;;4.50;;
5175;SDS011;2607;50.934;6.934;2023-05-06T09:36:35;5.50;;;3.30;;
5175;SDS011;2607;50.934;6.934;2023-05-06T09:39:01;2.93;;;2.73;;
5175;SDS011;2607;50.934;6.934;2023-05-06T09:41:28;4.40;;;2.73;;
5175;SDS011;2607;50.934;6.934;2023-05-06T09:43:54;2.63;;;2.43;;
5175;SDS011;2607;50.934;6.934;2023-05-06T09:46:21;2.90;;;2.70;;
5175;SDS011;2607;50.934;6.934;2023-05-06T09:48:51;3.03;;;2.83;;
5175;SDS011;2607;50.934;6.934;2023-05-06T09:51:18;3.60;;;3.40;;
5175;SDS011;2607;50.934;6.934;2023-05-06T09:53:43;3.10;;;2.90;;
5175;SDS011;2607;50.934;6.934;2023-05-06T09:56:10;3.60;;;3.30;;
5175;SDS011;2607;50.934;6.934;2023-05-06T09:58:36;2.70;;;2.50;;
5175;SDS011;2607;50.934;6.934;2023-05-06T10:01:03;3.10;;;2.90;;
5175;SDS011;2607;50.934;6.934;2023-05-06T10:03:30;2.90;;;2.70;;
5175;SDS011;2607;50.934;6.934;2023-05-06T10:05:56;2.47;;;2.30;;
5175;SDS011;2607;50.934;6.934;2023-05-06T10:08:24;3.10;;;2.90;;
5175;SDS011;2607;50.934;6.934;2023-05-06T10:10:50;4.03;;;3.77;;
5175;SDS011;2607;50.934;6.934;2023-05-06T10:13:20;3.50;;;3.30;;
5175;SDS011;2607;50.934;6.934;2023-05-06T10:15:49;6.40;;;2.70;;
5175;SDS011;2607;50.934;6.934;2023-05-06T10:18:15;1.97;;;1.97;;
5175;SDS011;2607;50.934;6.934;2023-05-06T10:20:42;3.00;;;2.90;;
5175;SDS011;2607;50.934;6.934;2023-05-06T10:26:04;7.10;;;5.40;;
5175;SDS011;2607;50.934;6.934;2023-05-06T10:28:31;2.77;;;2.57;;
5175;SDS011;2607;50.934;6.934;2023-05-06T10:31:03;2.53;;;2.33;;
5175;SDS011;2607;50.934;6.934;2023-05-06T10:33:31;2.70;;;2.50;;
5175;SDS011;2607;50.934;6.934;2023-05-06T10:38:31;2.90;;;2.57;;
5175;SDS011;2607;50.934;6.934;2023-05-06T10:41:01;3.43;;;3.13;;
5175;SDS011;2607;50.934;6.934;2023-05-06T10:43:29;4.20;;;2.43;;
5175;SDS011;2607;50.934;6.934;2023-05-06T10:48:27;2.40;;;2.20;;
5175;SDS011;2607;50.934;6.934;2023-05-06T10:54:00;3.67;;;3.37;;
5175;SDS011;2607;50.934;6.934;2023-05-06T10:59:12;3.07;;;2.87;;
5175;SDS011;2607;50.934;6.934;2023-05-06T11:01:38;2.37;;;2.17;;
5175;SDS011;2607;50.934;6.934;2023-05-06T11:04:13;1.90;;;1.80;;
5175;SDS011;2607;50.934;6.934;2023-05-06T11:06:40;2.10;;;1.90;;
5175;SDS011;2607;50.934;6.934;2023-05-06T11:09:14;2.70;;;2.10;;
5175;SDS011;2607;50.934;6.934;2023-05-06T11:14:29;1.80;;;1.70;;
5175;SDS011;2607;50.934;6.934;2023-05-06T11:17:02;2.63;;;2.53;;
5175;SDS011;2607;50.934;6.934;2023-05-06T11:19:30;3.03;;;2.10;;
5175;SDS011;2607;50.934;6.934;2023-05-06T11:21:58;1.70;;;1.60;;
5175;SDS011;2607;50.934;6.934;2023-05-06T11:24:37;2.70;;;2.00;;
5175;SDS011;2607;50.934;6.934;2023-05-06T11:27:04;1.87;;;1.77;;
5175;SDS011;2607;50.934;6.934;2023-05-06T11:29:31;2.70;;;2.50;;
5175;SDS011;2607;50.934;6.934;2023-05-06T11:31:56;2.30;;;2.10;;
5175;SDS011;2607;50.934;6.934;2023-05-06T11:34:26;1.93;;;1.80;;
5175;SDS011;2607;50.934;6.934;2023-05-06T11:37:03;3.27;;;1.90;;
5175;SDS011;2607;50.934;6.934;2023-05-06T11:39:33;3.67;;;3.37;;
5175;SDS011;2607;50.934;6.934;2023-05-06T11:42:01;4.03;;;2.53;;
5175;SDS011;2607;50.934;6.934;2023-05-06T11:44:29;2.63;;;2.40;;
5175;SDS011;2607;50.934;6.934;2023-05-06T11:47:00;3.37;;;2.40;;
5175;SDS011;2607;50.934;6.934;2023-05-06T11:49:28;2.87;;;2.60;;
5175;SDS011;2607;50.934;6.934;2023-05-06T11:51:54;3.83;;;3.27;;
5175;SDS011;2607;50.934;6.934;2023-05-06T11:54:21;4.47;;;4.07;;
5175;SDS011;2607;50.934;6.934;2023-05-06T11:56:52;2.40;;;2.23;;
5175;SDS011;2607;50.934;6.934;2023-05-06T11:59:30;4.30;;;3.90;;
5175;SDS011;2607;50.934;6.934;2023-05-06T12:01:58;7.57;;;3.17;;
5175;SDS011;2607;50.934;6.934;2023-05-06T12:04:25;3.07;;;2.90;;
5175;SDS011;2607;50.934;6.934;2023-05-06T12:06:51;2.90;;;2.70;;
5175;SDS011;2607;50.934;6.934;2023-05-06T12:09:17;2.60;;;2.40;;
5175;SDS011;2607;50.934;6.934;2023-05-06T12:11:46;4.50;;;4.10;;
5175;SDS011;2607;50.934;6.934;2023-05-06T12:14:12;3.50;;;3.30;;
5175;SDS011;2607;50.934;6.934;2023-05-06T12:16:37;4.67;;;2.70;;
5175;SDS011;2607;50.934;6.934;2023-05-06T12:19:03;5.57;;;4.20;;
5175;SDS011;2607;50.934;6.934;2023-05-06T12:21:29;3.93;;;2.47;;
5175;SDS011;2607;50.934;6.934;2023-05-06T12:23:57;3.70;;;2.60;;
5175;SDS011;2607;50.934;6.934;2023-05-06T12:26:24;2.60;;;1.63;;
5175;SDS011;2607;50.934;6.934;2023-05-06T12:29:03;4.33;;;3.00;;
5175;SDS011;2607;50.934;6.934;2023-05-06T12:31:34;8.87;;;5.40;;
5175;SDS011;2607;50.934;6.934;2023-05-06T12:34:00;2.80;;;2.33;;
5175;SDS011;2607;50.934;6.934;2023-05-06T12:36:26;2.33;;;2.13;;
5175;SDS011;2607;50.934;6.934;2023-05-06T12:38:55;6.83;;;2.80;;
5175;SDS011;2607;50.934;6.934;2023-05-06T12:44:36;3.33;;;3.03;;
5175;SDS011;2607;50.934;6.934;2023-05-06T12:47:04;3.03;;;2.40;;
5175;SDS011;2607;50.934;6.934;2023-05-06T12:49:47;2.30;;;1.90;;
5175;SDS011;2607;50.934;6.934;2023-05-06T12:52:14;3.20;;;3.00;;
5175;SDS011;2607;50.934;6.934;2023-05-06T12:54:40;2.87;;;1.87;;
5175;SDS011;2607;50.934;6.934;2023-05-06T12:57:06;2.20;;;1.80;;
5175;SDS011;2607;50.934;6.934;2023-05-06T12:59:31;8.13;;;4.43;;
5175;SDS011;2607;50.934;6.934;2023-05-06T13:01:58;2.20;;;2.10;;
5175;SDS011;2607;50.934;6.934;2023-05-06T13:04:24;7.10;;;5.40;;
5175;SDS011;2607;50.934;6.934;2023-05-06T13:06:50;3.07;;;2.73;;
5175;SDS011;2607;50.934;6.934;2023-05-06T13:09:16;2.30;;;2.10;;
5175;SDS011;2607;50.934;6.934;2023-05-06T13:11:42;1.50;;;1.47;;
5175;SDS011;2607;50.934;6.934;2023-05-06T13:14:08;3.90;;;2.27;;
5175;SDS011;2607;50.934;6.934;2023-05-06T13:16:34;2.00;;;1.90;;
5175;SDS011;2607;50.934;6.934;2023-05-06T13:19:00;1.47;;;1.37;;
5175;SDS011;2607;50.934;6.934;2023-05-06T13:21:26;1.70;;;1.60;;
5175;SDS011;2607;50.934;6.934;2023-05-06T13:23:52;8.60;;;7.20;;
5175;SDS011;2607;50.934;6.934;2023-05-06T13:26:17;2.90;;;2.73;;
5175;SDS011;2607;50.934;6.934;2023-05-06T13:28:43;10.10;;;7.77;;
5175;SDS011;2607;50.934;6.934;2023-05-06T13:31:09;3.57;;;3.27;;
5175;SDS011;2607;50.934;6.934;2023-05-06T13:33:34;2.80;;;2.60;;
5175;SDS011;2607;50.934;6.934;2023-05-06T13:36:00;3.33;;;2.80;;
5175;SDS011;2607;50.934;6.934;2023-05-06T13:38:25;11.73;;;10.03;;
5175;SDS011;2607;50.934;6.934;2023-05-06T13:40:52;3.93;;;3.43;;
5175;SDS011;2607;50.934;6.934;2023-05-06T13:43:18;2.67;;;2.30;;
5175;SDS011;2607;50.934;6.934;2023-05-06T13:45:44;5.60;;;3.10;;
5175;SDS011;2607;50.934;6.934;2023-05-06T13:48:13;5.87;;;3.90;;
5175;SDS011;2607;50.934;6.934;2023-05-06T13:50:43;3.33;;;2.90;;
5175;SDS011;2607;50.934;6.934;2023-05-06T13:53:12;2.93;;;2.53;;
5175;SDS011;2607;50.934;6.934;2023-05-06T13:55:38;9.83;;;4.77;;
5175;SDS011;2607;50.934;6.934;2023-05-06T13:58:04;4.23;;;3.30;;
5175;SDS011;2607;50.934;6.934;2023-05-06T14:00:31;2.23;;;2.03;;
5175;SDS011;2607;50.934;6.934;2023-05-06T14:02:57;3.00;;;2.70;;
5175;SDS011;2607;50.934;6.934;2023-05-06T14:05:23;1.80;;;1.47;;
5175;SDS011;2607;50.934;6.934;2023-05-06T14:07:49;5.30;;;4.43;;
5175;SDS011;2607;50.934;6.934;2023-05-06T14:10:15;3.53;;;3.23;;
5175;SDS011;2607;50.934;6.934;2023-05-06T14:12:40;4.27;;;3.67;;
5175;SDS011;2607;50.934;6.934;2023-05-06T14:15:07;13.00;;;4.87;;
5175;SDS011;2607;50.934;6.934;2023-05-06T14:17:33;2.77;;;2.57;;
5175;SDS011;2607;50.934;6.934;2023-05-06T14:19:59;4.63;;;3.40;;
5175;SDS011;2607;50.934;6.934;2023-05-06T14:22:26;11.73;;;2.53;;
5175;SDS011;2607;50.934;6.934;2023-05-06T14:24:52;2.77;;;2.50;;
5175;SDS011;2607;50.934;6.934;2023-05-06T14:27:18;4.43;;;2.50;;
5175;SDS011;2607;50.934;6.934;2023-05-06T14:29:44;3.13;;;1.93;;
5175;SDS011;2607;50.934;6.934;2023-05-06T14:32:10;2.77;;;1.97;;
5175;SDS011;2607;50.934;6.934;2023-05-06T14:34:36;2.77;;;1.83;;
5175;SDS011;2607;50.934;6.934;2023-05-06T14:37:02;3.60;;;2.00;;
5175;SDS011;2607;50.934;6.934;2023-05-06T14:39:27;2.20;;;1.67;;
5175;SDS011;2607;50.934;6.934;2023-05-06T14:41:53;1.30;;;1.30;;
5175;SDS011;2607;50.934;6.934;2023-05-06T14:44:19;1.77;;;1.53;;
5175;SDS011;2607;50.934;6.934;2023-05-06T14:46:45;2.37;;;1.60;;
5175;SDS011;2607;50.934;6.934;2023-05-06T14:49:11;4.80;;;2.77;;
5175;SDS011;2607;50.934;6.934;2023-05-06T14:51:36;1.93;;;1.83;;
5175;SDS011;2607;50.934;6.934;2023-05-06T14:54:02;1.73;;;1.63;;
5175;SDS011;2607;50.934;6.934;2023-05-06T14:56:27;2.20;;;2.00;;
5175;SDS011;2607;50.934;6.934;2023-05-06T14:58:53;9.50;;;2.13;;
5175;SDS011;2607;50.934;6.934;2023-05-06T15:01:18;1.77;;;1.67;;
5175;SDS011;2607;50.934;6.934;2023-05-06T15:03:44;1.97;;;1.80;;
5175;SDS011;2607;50.934;6.934;2023-05-06T15:06:09;2.20;;;2.10;;
5175;SDS011;2607;50.934;6.934;2023-05-06T15:08:38;2.57;;;2.03;;
5175;SDS011;2607;50.934;6.934;2023-05-06T15:11:03;2.40;;;2.30;;
5175;SDS011;2607;50.934;6.934;2023-05-06T15:13:29;2.87;;;2.37;;
5175;SDS011;2607;50.934;6.934;2023-05-06T15:15:55;3.30;;;3.00;;
5175;SDS011;2607;50.934;6.934;2023-05-06T15:18:20;2.23;;;2.13;;